sensor_id;sensor_type;location;lat;lon;timestamp;P1;durP1;ratioP1;P2;durP2;ratioP2
39750;SDS011;37579;51.074;17.004;2023-07-28T00:00:50;2.08;;;1.40;;
39750;SDS011;37579;51.074;17.004;2023-07-28T00:03:16;2.22;;;1.48;;
39750;SDS011;37579;51.074;17.004;2023-07-28T00:05:42;3.15;;;1.35;;
39750;SDS011;37579;51.074;17.004;2023-07-28T00:08:07;3.33;;;1.95;;
39750;SDS011;37579;51.074;17.004;2023-07-28T00:10:33;2.45;;;1.60;;
39750;SDS011;37579;51.074;17.004;2023-07-28T00:13:04;2.55;;;1.35;;
39750;SDS011;37579;51.074;17.004;2023-07-28T00:15:30;2.58;;;1.45;;
39750;SDS011;37579;51.074;17.004;2023-07-28T00:17:56;1.85;;;1.55;;
39750;SDS011;37579;51.074;17.004;2023-07-28T00:20:21;1.35;;;1.00;;
39750;SDS011;37579;51.074;17.004;2023-07-28T00:22:47;3.42;;;1.42;;
39750;SDS011;37579;51.074;17.004;2023-07-28T00:25:13;3.13;;;1.35;;
39750;SDS011;37579;51.074;17.004;2023-07-28T00:27:39;3.90;;;1.48;;
39750;SDS011;37579;51.074;17.004;2023-07-28T00:30:05;1.27;;;1.17;;
39750;SDS011;37579;51.074;17.004;2023-07-28T00:32:31;2.20;;;1.35;;
39750;SDS011;37579;51.074;17.004;2023-07-28T00:34:56;1.85;;;1.20;;
39750;SDS011;37579;51.074;17.004;2023-07-28T00:37:22;3.17;;;1.20;;
39750;SDS011;37579;51.074;17.004;2023-07-28T00:39:48;2.00;;;1.30;;
39750;SDS011;37579;51.074;17.004;2023-07-28T00:42:14;1.75;;;1.45;;
39750;SDS011;37579;51.074;17.004;2023-07-28T00:44:39;2.03;;;1.25;;
39750;SDS011;37579;51.074;17.004;2023-07-28T00:47:05;1.80;;;1.30;;
39750;SDS011;37579;51.074;17.004;2023-07-28T00:49:31;2.70;;;1.50;;
39750;SDS011;37579;51.074;17.004;2023-07-28T00:51:57;2.17;;;1.20;;
39750;SDS011;37579;51.074;17.004;2023-07-28T00:54:23;2.85;;;1.30;;
39750;SDS011;37579;51.074;17.004;2023-07-28T00:56:49;3.35;;;1.90;;
39750;SDS011;37579;51.074;17.004;2023-07-28T00:59:16;2.05;;;1.38;;
39750;SDS011;37579;51.074;17.004;2023-07-28T01:01:42;2.65;;;1.30;;
39750;SDS011;37579;51.074;17.004;2023-07-28T01:04:07;2.55;;;1.50;;
39750;SDS011;37579;51.074;17.004;2023-07-28T01:06:47;3.13;;;1.52;;
39750;SDS011;37579;51.074;17.004;2023-07-28T01:09:14;2.03;;;1.65;;
39750;SDS011;37579;51.074;17.004;2023-07-28T01:11:56;2.85;;;1.17;;
39750;SDS011;37579;51.074;17.004;2023-07-28T01:14:23;2.10;;;1.40;;
39750;SDS011;37579;51.074;17.004;2023-07-28T01:16:50;2.80;;;1.30;;
39750;SDS011;37579;51.074;17.004;2023-07-28T01:19:16;1.75;;;1.42;;
39750;SDS011;37579;51.074;17.004;2023-07-28T01:21:48;2.03;;;1.40;;
39750;SDS011;37579;51.074;17.004;2023-07-28T01:27:31;3.13;;;1.60;;
39750;SDS011;37579;51.074;17.004;2023-07-28T01:29:57;1.67;;;1.20;;
39750;SDS011;37579;51.074;17.004;2023-07-28T01:32:24;2.20;;;1.23;;
39750;SDS011;37579;51.074;17.004;2023-07-28T01:34:49;1.70;;;1.30;;
39750;SDS011;37579;51.074;17.004;2023-07-28T01:37:15;2.03;;;1.40;;
39750;SDS011;37579;51.074;17.004;2023-07-28T01:39:41;2.17;;;1.42;;
39750;SDS011;37579;51.074;17.004;2023-07-28T01:42:07;2.22;;;1.50;;
39750;SDS011;37579;51.074;17.004;2023-07-28T01:44:32;1.98;;;1.40;;
39750;SDS011;37579;51.074;17.004;2023-07-28T01:46:58;2.92;;;1.20;;
39750;SDS011;37579;51.074;17.004;2023-07-28T01:49:24;2.40;;;1.15;;
39750;SDS011;37579;51.074;17.004;2023-07-28T01:51:49;1.45;;;1.20;;
39750;SDS011;37579;51.074;17.004;2023-07-28T01:54:15;1.55;;;1.20;;
39750;SDS011;37579;51.074;17.004;2023-07-28T01:56:41;1.55;;;1.45;;
39750;SDS011;37579;51.074;17.004;2023-07-28T01:59:07;1.25;;;1.15;;
39750;SDS011;37579;51.074;17.004;2023-07-28T02:01:34;2.40;;;1.40;;
39750;SDS011;37579;51.074;17.004;2023-07-28T02:04:00;2.20;;;1.70;;
39750;SDS011;37579;51.074;17.004;2023-07-28T02:06:26;1.50;;;1.40;;
39750;SDS011;37579;51.074;17.004;2023-07-28T02:08:53;2.50;;;1.70;;
39750;SDS011;37579;51.074;17.004;2023-07-28T02:11:18;2.90;;;1.30;;
39750;SDS011;37579;51.074;17.004;2023-07-28T02:13:44;2.10;;;1.50;;
39750;SDS011;37579;51.074;17.004;2023-07-28T02:16:15;2.78;;;1.45;;
39750;SDS011;37579;51.074;17.004;2023-07-28T02:18:41;1.67;;;1.48;;
39750;SDS011;37579;51.074;17.004;2023-07-28T02:21:10;3.60;;;1.63;;
39750;SDS011;37579;51.074;17.004;2023-07-28T02:23:35;2.78;;;1.20;;
39750;SDS011;37579;51.074;17.004;2023-07-28T02:26:01;2.47;;;1.42;;
39750;SDS011;37579;51.074;17.004;2023-07-28T02:28:27;1.83;;;1.60;;
39750;SDS011;37579;51.074;17.004;2023-07-28T02:30:55;2.03;;;1.65;;
39750;SDS011;37579;51.074;17.004;2023-07-28T02:33:20;2.08;;;1.55;;
39750;SDS011;37579;51.074;17.004;2023-07-28T02:35:46;1.58;;;1.30;;
39750;SDS011;37579;51.074;17.004;2023-07-28T02:38:12;2.53;;;1.60;;
39750;SDS011;37579;51.074;17.004;2023-07-28T02:40:38;1.50;;;1.40;;
39750;SDS011;37579;51.074;17.004;2023-07-28T02:43:04;1.33;;;1.23;;
39750;SDS011;37579;51.074;17.004;2023-07-28T02:45:29;1.58;;;1.30;;
39750;SDS011;37579;51.074;17.004;2023-07-28T02:47:55;2.03;;;1.55;;
39750;SDS011;37579;51.074;17.004;2023-07-28T02:50:22;2.53;;;1.80;;
39750;SDS011;37579;51.074;17.004;2023-07-28T02:52:48;2.13;;;1.38;;
39750;SDS011;37579;51.074;17.004;2023-07-28T02:55:14;2.00;;;1.52;;
39750;SDS011;37579;51.074;17.004;2023-07-28T02:57:40;1.98;;;1.48;;
39750;SDS011;37579;51.074;17.004;2023-07-28T03:00:06;2.20;;;1.50;;
39750;SDS011;37579;51.074;17.004;2023-07-28T03:02:35;1.80;;;1.60;;
39750;SDS011;37579;51.074;17.004;2023-07-28T03:05:01;3.40;;;1.63;;
39750;SDS011;37579;51.074;17.004;2023-07-28T03:07:42;1.60;;;1.30;;
39750;SDS011;37579;51.074;17.004;2023-07-28T03:10:08;2.03;;;1.55;;
39750;SDS011;37579;51.074;17.004;2023-07-28T03:12:36;1.40;;;1.30;;
39750;SDS011;37579;51.074;17.004;2023-07-28T03:15:02;1.73;;;1.33;;
39750;SDS011;37579;51.074;17.004;2023-07-28T03:17:28;1.98;;;1.50;;
39750;SDS011;37579;51.074;17.004;2023-07-28T03:19:54;2.28;;;1.58;;
39750;SDS011;37579;51.074;17.004;2023-07-28T03:22:19;1.75;;;1.30;;
39750;SDS011;37579;51.074;17.004;2023-07-28T03:24:45;2.33;;;1.30;;
39750;SDS011;37579;51.074;17.004;2023-07-28T03:27:11;1.50;;;1.30;;
39750;SDS011;37579;51.074;17.004;2023-07-28T03:29:37;1.95;;;1.58;;
39750;SDS011;37579;51.074;17.004;2023-07-28T03:32:04;1.50;;;1.35;;
39750;SDS011;37579;51.074;17.004;2023-07-28T03:34:30;1.60;;;1.50;;
39750;SDS011;37579;51.074;17.004;2023-07-28T03:36:58;1.90;;;1.50;;
39750;SDS011;37579;51.074;17.004;2023-07-28T03:39:24;2.70;;;1.52;;
39750;SDS011;37579;51.074;17.004;2023-07-28T03:41:50;1.35;;;1.23;;
39750;SDS011;37579;51.074;17.004;2023-07-28T03:44:16;1.98;;;1.50;;
39750;SDS011;37579;51.074;17.004;2023-07-28T03:46:44;1.85;;;1.20;;
39750;SDS011;37579;51.074;17.004;2023-07-28T03:49:10;1.58;;;1.40;;
39750;SDS011;37579;51.074;17.004;2023-07-28T03:51:36;1.38;;;1.20;;
39750;SDS011;37579;51.074;17.004;2023-07-28T03:54:02;2.03;;;1.25;;
39750;SDS011;37579;51.074;17.004;2023-07-28T03:56:27;1.40;;;1.20;;
39750;SDS011;37579;51.074;17.004;2023-07-28T03:58:55;1.52;;;1.30;;
39750;SDS011;37579;51.074;17.004;2023-07-28T04:01:21;2.55;;;1.38;;
39750;SDS011;37579;51.074;17.004;2023-07-28T04:03:47;1.70;;;1.25;;
39750;SDS011;37579;51.074;17.004;2023-07-28T04:06:13;1.23;;;1.02;;
39750;SDS011;37579;51.074;17.004;2023-07-28T04:08:39;1.42;;;1.33;;
39750;SDS011;37579;51.074;17.004;2023-07-28T04:11:05;2.00;;;1.05;;
39750;SDS011;37579;51.074;17.004;2023-07-28T04:13:31;1.52;;;1.27;;
39750;SDS011;37579;51.074;17.004;2023-07-28T04:15:58;1.85;;;1.48;;
39750;SDS011;37579;51.074;17.004;2023-07-28T04:18:24;1.00;;;0.88;;
39750;SDS011;37579;51.074;17.004;2023-07-28T04:20:50;0.80;;;0.80;;
39750;SDS011;37579;51.074;17.004;2023-07-28T04:23:15;1.95;;;1.20;;
39750;SDS011;37579;51.074;17.004;2023-07-28T04:25:41;2.05;;;1.17;;
39750;SDS011;37579;51.074;17.004;2023-07-28T04:28:07;1.33;;;0.98;;
39750;SDS011;37579;51.074;17.004;2023-07-28T04:30:33;1.27;;;1.10;;
39750;SDS011;37579;51.074;17.004;2023-07-28T04:32:58;1.65;;;0.82;;
39750;SDS011;37579;51.074;17.004;2023-07-28T04:35:30;1.20;;;1.10;;
39750;SDS011;37579;51.074;17.004;2023-07-28T04:38:18;1.15;;;0.85;;
39750;SDS011;37579;51.074;17.004;2023-07-28T04:40:47;1.23;;;1.00;;
39750;SDS011;37579;51.074;17.004;2023-07-28T04:43:16;2.05;;;0.90;;
39750;SDS011;37579;51.074;17.004;2023-07-28T04:45:48;1.47;;;1.27;;
39750;SDS011;37579;51.074;17.004;2023-07-28T04:48:18;1.13;;;1.00;;
39750;SDS011;37579;51.074;17.004;2023-07-28T04:50:44;1.02;;;0.90;;
39750;SDS011;37579;51.074;17.004;2023-07-28T04:53:30;1.45;;;0.90;;
39750;SDS011;37579;51.074;17.004;2023-07-28T04:56:07;1.23;;;0.90;;
39750;SDS011;37579;51.074;17.004;2023-07-28T04:58:33;1.00;;;0.90;;
39750;SDS011;37579;51.074;17.004;2023-07-28T05:01:00;2.20;;;0.80;;
39750;SDS011;37579;51.074;17.004;2023-07-28T05:03:28;1.50;;;1.02;;
39750;SDS011;37579;51.074;17.004;2023-07-28T05:06:06;1.00;;;0.82;;
39750;SDS011;37579;51.074;17.004;2023-07-28T05:08:31;1.08;;;0.90;;
39750;SDS011;37579;51.074;17.004;2023-07-28T05:10:57;1.55;;;1.02;;
39750;SDS011;37579;51.074;17.004;2023-07-28T05:13:24;1.10;;;1.00;;
39750;SDS011;37579;51.074;17.004;2023-07-28T05:15:53;1.20;;;0.88;;
39750;SDS011;37579;51.074;17.004;2023-07-28T05:18:37;1.42;;;1.08;;
39750;SDS011;37579;51.074;17.004;2023-07-28T05:21:22;1.35;;;0.85;;
39750;SDS011;37579;51.074;17.004;2023-07-28T05:23:48;1.20;;;0.90;;
39750;SDS011;37579;51.074;17.004;2023-07-28T05:26:14;1.27;;;0.80;;
39750;SDS011;37579;51.074;17.004;2023-07-28T05:28:40;0.80;;;0.73;;
39750;SDS011;37579;51.074;17.004;2023-07-28T05:31:06;0.90;;;0.82;;
39750;SDS011;37579;51.074;17.004;2023-07-28T05:33:33;1.35;;;0.82;;
39750;SDS011;37579;51.074;17.004;2023-07-28T05:36:02;0.98;;;0.70;;
39750;SDS011;37579;51.074;17.004;2023-07-28T05:38:28;1.38;;;1.00;;
39750;SDS011;37579;51.074;17.004;2023-07-28T05:40:57;1.20;;;0.90;;
39750;SDS011;37579;51.074;17.004;2023-07-28T05:43:29;0.60;;;0.60;;
39750;SDS011;37579;51.074;17.004;2023-07-28T05:45:57;1.23;;;0.70;;
39750;SDS011;37579;51.074;17.004;2023-07-28T05:48:24;1.15;;;0.80;;
39750;SDS011;37579;51.074;17.004;2023-07-28T05:50:50;1.80;;;0.82;;
39750;SDS011;37579;51.074;17.004;2023-07-28T05:53:19;1.02;;;0.90;;
39750;SDS011;37579;51.074;17.004;2023-07-28T05:55:47;0.75;;;0.70;;
39750;SDS011;37579;51.074;17.004;2023-07-28T05:58:13;0.95;;;0.70;;
39750;SDS011;37579;51.074;17.004;2023-07-28T06:00:40;1.65;;;1.10;;
39750;SDS011;37579;51.074;17.004;2023-07-28T06:03:12;1.05;;;0.85;;
39750;SDS011;37579;51.074;17.004;2023-07-28T06:05:56;0.93;;;0.52;;
39750;SDS011;37579;51.074;17.004;2023-07-28T06:08:22;2.17;;;0.80;;
39750;SDS011;37579;51.074;17.004;2023-07-28T06:10:48;0.82;;;0.65;;
39750;SDS011;37579;51.074;17.004;2023-07-28T06:13:14;1.15;;;0.70;;
39750;SDS011;37579;51.074;17.004;2023-07-28T06:15:40;1.52;;;0.70;;
39750;SDS011;37579;51.074;17.004;2023-07-28T06:18:06;2.45;;;0.70;;
39750;SDS011;37579;51.074;17.004;2023-07-28T06:20:32;0.65;;;0.50;;
39750;SDS011;37579;51.074;17.004;2023-07-28T06:22:59;0.82;;;0.65;;
39750;SDS011;37579;51.074;17.004;2023-07-28T06:25:26;1.17;;;0.60;;
39750;SDS011;37579;51.074;17.004;2023-07-28T06:27:52;4.35;;;0.60;;
39750;SDS011;37579;51.074;17.004;2023-07-28T06:30:18;1.38;;;0.70;;
39750;SDS011;37579;51.074;17.004;2023-07-28T06:32:44;0.63;;;0.55;;
39750;SDS011;37579;51.074;17.004;2023-07-28T06:35:10;1.90;;;0.90;;
39750;SDS011;37579;51.074;17.004;2023-07-28T06:37:36;0.73;;;0.63;;
39750;SDS011;37579;51.074;17.004;2023-07-28T06:40:05;0.85;;;0.68;;
39750;SDS011;37579;51.074;17.004;2023-07-28T06:42:35;1.13;;;0.50;;
39750;SDS011;37579;51.074;17.004;2023-07-28T06:45:02;0.80;;;0.50;;
39750;SDS011;37579;51.074;17.004;2023-07-28T06:47:29;1.25;;;0.90;;
39750;SDS011;37579;51.074;17.004;2023-07-28T06:49:55;0.60;;;0.55;;
39750;SDS011;37579;51.074;17.004;2023-07-28T06:52:21;1.60;;;0.60;;
39750;SDS011;37579;51.074;17.004;2023-07-28T06:54:47;4.93;;;0.80;;
39750;SDS011;37579;51.074;17.004;2023-07-28T06:57:14;1.45;;;0.63;;
39750;SDS011;37579;51.074;17.004;2023-07-28T06:59:41;1.13;;;0.75;;
39750;SDS011;37579;51.074;17.004;2023-07-28T07:02:07;2.03;;;0.70;;
39750;SDS011;37579;51.074;17.004;2023-07-28T07:04:34;1.88;;;0.60;;
39750;SDS011;37579;51.074;17.004;2023-07-28T07:07:00;1.48;;;0.63;;
39750;SDS011;37579;51.074;17.004;2023-07-28T07:09:27;1.35;;;0.63;;
39750;SDS011;37579;51.074;17.004;2023-07-28T07:11:54;1.65;;;0.70;;
39750;SDS011;37579;51.074;17.004;2023-07-28T07:14:20;1.90;;;0.82;;
39750;SDS011;37579;51.074;17.004;2023-07-28T07:16:46;2.95;;;0.98;;
39750;SDS011;37579;51.074;17.004;2023-07-28T07:19:11;2.45;;;1.10;;
39750;SDS011;37579;51.074;17.004;2023-07-28T07:21:38;0.75;;;0.50;;
39750;SDS011;37579;51.074;17.004;2023-07-28T07:24:04;0.50;;;0.50;;
39750;SDS011;37579;51.074;17.004;2023-07-28T07:26:30;1.58;;;0.50;;
39750;SDS011;37579;51.074;17.004;2023-07-28T07:28:56;1.15;;;0.60;;
39750;SDS011;37579;51.074;17.004;2023-07-28T07:31:22;1.42;;;0.70;;
39750;SDS011;37579;51.074;17.004;2023-07-28T07:33:48;1.27;;;0.57;;
39750;SDS011;37579;51.074;17.004;2023-07-28T07:36:15;1.13;;;0.60;;
39750;SDS011;37579;51.074;17.004;2023-07-28T07:38:41;1.25;;;0.60;;
39750;SDS011;37579;51.074;17.004;2023-07-28T07:41:08;1.15;;;0.55;;
39750;SDS011;37579;51.074;17.004;2023-07-28T07:43:36;2.67;;;0.52;;
39750;SDS011;37579;51.074;17.004;2023-07-28T07:46:02;1.58;;;0.75;;
39750;SDS011;37579;51.074;17.004;2023-07-28T07:48:27;1.42;;;0.90;;
39750;SDS011;37579;51.074;17.004;2023-07-28T07:50:53;3.20;;;0.52;;
39750;SDS011;37579;51.074;17.004;2023-07-28T07:53:19;0.70;;;0.45;;
39750;SDS011;37579;51.074;17.004;2023-07-28T07:55:45;1.25;;;0.50;;
39750;SDS011;37579;51.074;17.004;2023-07-28T07:58:11;0.68;;;0.50;;
39750;SDS011;37579;51.074;17.004;2023-07-28T08:00:37;2.28;;;0.60;;
39750;SDS011;37579;51.074;17.004;2023-07-28T08:03:03;0.93;;;0.50;;
39750;SDS011;37579;51.074;17.004;2023-07-28T08:05:30;0.93;;;0.68;;
39750;SDS011;37579;51.074;17.004;2023-07-28T08:07:56;1.48;;;0.60;;
39750;SDS011;37579;51.074;17.004;2023-07-28T08:10:22;1.08;;;0.60;;
39750;SDS011;37579;51.074;17.004;2023-07-28T08:12:48;0.73;;;0.40;;
39750;SDS011;37579;51.074;17.004;2023-07-28T08:15:14;1.90;;;0.50;;
39750;SDS011;37579;51.074;17.004;2023-07-28T08:17:40;0.55;;;0.50;;
39750;SDS011;37579;51.074;17.004;2023-07-28T08:20:07;0.90;;;0.43;;
39750;SDS011;37579;51.074;17.004;2023-07-28T08:22:33;1.83;;;0.55;;
39750;SDS011;37579;51.074;17.004;2023-07-28T08:24:59;1.92;;;0.50;;
39750;SDS011;37579;51.074;17.004;2023-07-28T08:27:25;1.45;;;0.50;;
39750;SDS011;37579;51.074;17.004;2023-07-28T08:29:50;0.75;;;0.40;;
39750;SDS011;37579;51.074;17.004;2023-07-28T08:32:16;1.10;;;0.60;;
39750;SDS011;37579;51.074;17.004;2023-07-28T08:34:42;0.88;;;0.40;;
39750;SDS011;37579;51.074;17.004;2023-07-28T08:37:08;0.80;;;0.55;;
39750;SDS011;37579;51.074;17.004;2023-07-28T08:39:34;0.90;;;0.50;;
39750;SDS011;37579;51.074;17.004;2023-07-28T08:42:00;1.65;;;0.50;;
39750;SDS011;37579;51.074;17.004;2023-07-28T08:44:30;1.00;;;0.30;;
39750;SDS011;37579;51.074;17.004;2023-07-28T08:46:58;2.35;;;0.70;;
39750;SDS011;37579;51.074;17.004;2023-07-28T08:49:28;1.00;;;0.40;;
39750;SDS011;37579;51.074;17.004;2023-07-28T08:51:57;4.97;;;0.60;;
39750;SDS011;37579;51.074;17.004;2023-07-28T08:54:25;2.50;;;0.63;;
39750;SDS011;37579;51.074;17.004;2023-07-28T08:56:51;2.22;;;0.40;;
39750;SDS011;37579;51.074;17.004;2023-07-28T08:59:23;4.30;;;0.68;;
39750;SDS011;37579;51.074;17.004;2023-07-28T09:01:53;2.10;;;0.57;;
39750;SDS011;37579;51.074;17.004;2023-07-28T09:04:21;4.63;;;0.50;;
39750;SDS011;37579;51.074;17.004;2023-07-28T09:06:47;4.50;;;0.47;;
39750;SDS011;37579;51.074;17.004;2023-07-28T09:09:14;2.25;;;1.00;;
39750;SDS011;37579;51.074;17.004;2023-07-28T09:11:48;1.27;;;0.50;;
39750;SDS011;37579;51.074;17.004;2023-07-28T09:14:16;3.60;;;0.60;;
39750;SDS011;37579;51.074;17.004;2023-07-28T09:16:44;1.30;;;1.00;;
39750;SDS011;37579;51.074;17.004;2023-07-28T09:19:11;2.45;;;0.77;;
39750;SDS011;37579;51.074;17.004;2023-07-28T09:21:37;2.45;;;0.88;;
39750;SDS011;37579;51.074;17.004;2023-07-28T09:24:12;3.08;;;0.80;;
39750;SDS011;37579;51.074;17.004;2023-07-28T09:26:46;6.05;;;0.90;;
39750;SDS011;37579;51.074;17.004;2023-07-28T09:29:16;2.78;;;0.80;;
39750;SDS011;37579;51.074;17.004;2023-07-28T09:31:43;2.10;;;1.10;;
39750;SDS011;37579;51.074;17.004;2023-07-28T09:34:10;4.05;;;1.30;;
39750;SDS011;37579;51.074;17.004;2023-07-28T09:36:37;5.65;;;1.63;;
39750;SDS011;37579;51.074;17.004;2023-07-28T09:39:04;6.75;;;1.42;;
39750;SDS011;37579;51.074;17.004;2023-07-28T09:41:36;5.07;;;1.10;;
39750;SDS011;37579;51.074;17.004;2023-07-28T09:44:03;3.85;;;0.95;;
39750;SDS011;37579;51.074;17.004;2023-07-28T09:46:32;2.15;;;0.90;;
39750;SDS011;37579;51.074;17.004;2023-07-28T09:49:05;3.63;;;1.00;;
39750;SDS011;37579;51.074;17.004;2023-07-28T09:51:37;3.20;;;0.68;;
39750;SDS011;37579;51.074;17.004;2023-07-28T09:54:13;2.13;;;0.68;;
39750;SDS011;37579;51.074;17.004;2023-07-28T09:56:52;1.10;;;0.70;;
39750;SDS011;37579;51.074;17.004;2023-07-28T09:59:21;2.60;;;0.90;;
39750;SDS011;37579;51.074;17.004;2023-07-28T10:02:03;4.90;;;0.80;;
39750;SDS011;37579;51.074;17.004;2023-07-28T10:04:30;2.55;;;0.70;;
39750;SDS011;37579;51.074;17.004;2023-07-28T10:06:59;2.70;;;0.60;;
39750;SDS011;37579;51.074;17.004;2023-07-28T10:09:28;2.00;;;0.80;;
39750;SDS011;37579;51.074;17.004;2023-07-28T10:11:55;2.75;;;0.60;;
39750;SDS011;37579;51.074;17.004;2023-07-28T10:14:25;1.73;;;1.15;;
39750;SDS011;37579;51.074;17.004;2023-07-28T10:16:53;1.40;;;1.10;;
39750;SDS011;37579;51.074;17.004;2023-07-28T10:19:19;1.88;;;1.02;;
39750;SDS011;37579;51.074;17.004;2023-07-28T10:21:46;1.75;;;0.90;;
39750;SDS011;37579;51.074;17.004;2023-07-28T10:24:11;0.77;;;0.70;;
39750;SDS011;37579;51.074;17.004;2023-07-28T10:26:40;1.75;;;0.75;;
39750;SDS011;37579;51.074;17.004;2023-07-28T10:29:12;1.67;;;0.40;;
39750;SDS011;37579;51.074;17.004;2023-07-28T10:37:50;1.00;;;0.70;;
39750;SDS011;37579;51.074;17.004;2023-07-28T10:40:31;1.17;;;0.70;;
39750;SDS011;37579;51.074;17.004;2023-07-28T10:43:01;1.92;;;0.60;;
39750;SDS011;37579;51.074;17.004;2023-07-28T10:45:29;0.80;;;0.70;;
39750;SDS011;37579;51.074;17.004;2023-07-28T10:47:56;0.65;;;0.52;;
39750;SDS011;37579;51.074;17.004;2023-07-28T10:50:28;0.88;;;0.73;;
39750;SDS011;37579;51.074;17.004;2023-07-28T10:52:55;2.08;;;0.63;;
39750;SDS011;37579;51.074;17.004;2023-07-28T10:55:23;2.47;;;0.75;;
39750;SDS011;37579;51.074;17.004;2023-07-28T10:57:51;1.17;;;0.70;;
39750;SDS011;37579;51.074;17.004;2023-07-28T11:00:18;1.00;;;0.73;;
39750;SDS011;37579;51.074;17.004;2023-07-28T11:02:52;0.57;;;0.50;;
39750;SDS011;37579;51.074;17.004;2023-07-28T11:07:47;2.08;;;0.80;;
39750;SDS011;37579;51.074;17.004;2023-07-28T11:10:14;3.63;;;0.68;;
39750;SDS011;37579;51.074;17.004;2023-07-28T11:12:50;0.57;;;0.57;;
39750;SDS011;37579;51.074;17.004;2023-07-28T11:15:17;1.73;;;0.80;;
39750;SDS011;37579;51.074;17.004;2023-07-28T11:17:45;1.17;;;0.63;;
39750;SDS011;37579;51.074;17.004;2023-07-28T11:20:15;1.25;;;0.60;;
39750;SDS011;37579;51.074;17.004;2023-07-28T11:22:45;2.15;;;0.80;;
39750;SDS011;37579;51.074;17.004;2023-07-28T11:25:22;1.55;;;0.70;;
39750;SDS011;37579;51.074;17.004;2023-07-28T11:27:50;0.88;;;0.60;;
39750;SDS011;37579;51.074;17.004;2023-07-28T11:30:17;0.98;;;0.70;;
39750;SDS011;37579;51.074;17.004;2023-07-28T11:32:44;2.85;;;0.60;;
39750;SDS011;37579;51.074;17.004;2023-07-28T11:35:12;1.00;;;0.73;;
39750;SDS011;37579;51.074;17.004;2023-07-28T11:37:39;1.13;;;0.70;;
39750;SDS011;37579;51.074;17.004;2023-07-28T11:40:06;1.20;;;0.73;;
39750;SDS011;37579;51.074;17.004;2023-07-28T11:42:39;1.10;;;0.68;;
39750;SDS011;37579;51.074;17.004;2023-07-28T11:45:09;1.15;;;0.70;;
39750;SDS011;37579;51.074;17.004;2023-07-28T11:47:37;1.38;;;0.80;;
39750;SDS011;37579;51.074;17.004;2023-07-28T11:50:03;1.67;;;0.70;;
39750;SDS011;37579;51.074;17.004;2023-07-28T11:52:33;2.58;;;0.93;;
39750;SDS011;37579;51.074;17.004;2023-07-28T11:55:01;1.98;;;0.80;;
39750;SDS011;37579;51.074;17.004;2023-07-28T11:57:28;6.32;;;0.88;;
39750;SDS011;37579;51.074;17.004;2023-07-28T11:59:58;0.80;;;0.80;;
39750;SDS011;37579;51.074;17.004;2023-07-28T12:02:31;1.42;;;1.00;;
39750;SDS011;37579;51.074;17.004;2023-07-28T12:04:58;2.10;;;1.00;;
39750;SDS011;37579;51.074;17.004;2023-07-28T12:07:31;1.00;;;0.68;;
39750;SDS011;37579;51.074;17.004;2023-07-28T12:12:40;0.63;;;0.60;;
39750;SDS011;37579;51.074;17.004;2023-07-28T12:15:24;1.00;;;0.60;;
39750;SDS011;37579;51.074;17.004;2023-07-28T12:20:38;0.60;;;0.60;;
39750;SDS011;37579;51.074;17.004;2023-07-28T12:23:05;0.88;;;0.60;;
39750;SDS011;37579;51.074;17.004;2023-07-28T12:25:31;1.48;;;0.70;;
39750;SDS011;37579;51.074;17.004;2023-07-28T12:27:58;1.27;;;0.70;;
39750;SDS011;37579;51.074;17.004;2023-07-28T12:30:23;1.02;;;0.63;;
39750;SDS011;37579;51.074;17.004;2023-07-28T12:32:49;0.63;;;0.55;;
39750;SDS011;37579;51.074;17.004;2023-07-28T12:35:15;0.70;;;0.70;;
39750;SDS011;37579;51.074;17.004;2023-07-28T12:37:41;1.42;;;0.80;;
39750;SDS011;37579;51.074;17.004;2023-07-28T12:40:07;0.60;;;0.55;;
39750;SDS011;37579;51.074;17.004;2023-07-28T12:42:35;0.90;;;0.77;;
39750;SDS011;37579;51.074;17.004;2023-07-28T12:45:01;1.38;;;0.50;;
39750;SDS011;37579;51.074;17.004;2023-07-28T12:47:27;1.02;;;0.70;;
39750;SDS011;37579;51.074;17.004;2023-07-28T12:49:52;0.70;;;0.55;;
39750;SDS011;37579;51.074;17.004;2023-07-28T12:52:18;1.83;;;0.60;;
39750;SDS011;37579;51.074;17.004;2023-07-28T12:54:45;0.77;;;0.57;;
39750;SDS011;37579;51.074;17.004;2023-07-28T12:57:12;1.17;;;0.57;;
39750;SDS011;37579;51.074;17.004;2023-07-28T12:59:38;1.30;;;0.60;;
39750;SDS011;37579;51.074;17.004;2023-07-28T13:02:04;0.75;;;0.40;;
39750;SDS011;37579;51.074;17.004;2023-07-28T13:04:30;0.95;;;0.70;;
39750;SDS011;37579;51.074;17.004;2023-07-28T13:06:56;1.80;;;0.60;;
39750;SDS011;37579;51.074;17.004;2023-07-28T13:09:22;0.60;;;0.50;;
39750;SDS011;37579;51.074;17.004;2023-07-28T13:11:48;0.55;;;0.47;;
39750;SDS011;37579;51.074;17.004;2023-07-28T13:14:14;1.23;;;0.60;;
39750;SDS011;37579;51.074;17.004;2023-07-28T13:16:39;1.25;;;0.32;;
39750;SDS011;37579;51.074;17.004;2023-07-28T13:19:06;1.00;;;0.60;;
39750;SDS011;37579;51.074;17.004;2023-07-28T13:21:31;0.60;;;0.60;;
39750;SDS011;37579;51.074;17.004;2023-07-28T13:23:58;0.77;;;0.60;;
39750;SDS011;37579;51.074;17.004;2023-07-28T13:26:24;3.10;;;0.60;;
39750;SDS011;37579;51.074;17.004;2023-07-28T13:28:51;0.95;;;0.60;;
39750;SDS011;37579;51.074;17.004;2023-07-28T13:31:17;2.53;;;0.77;;
39750;SDS011;37579;51.074;17.004;2023-07-28T13:33:43;0.93;;;0.60;;
39750;SDS011;37579;51.074;17.004;2023-07-28T13:36:10;1.52;;;0.50;;
39750;SDS011;37579;51.074;17.004;2023-07-28T13:38:36;0.70;;;0.50;;
39750;SDS011;37579;51.074;17.004;2023-07-28T13:41:05;0.57;;;0.40;;
39750;SDS011;37579;51.074;17.004;2023-07-28T13:43:32;3.28;;;0.80;;
39750;SDS011;37579;51.074;17.004;2023-07-28T13:46:01;0.50;;;0.40;;
39750;SDS011;37579;51.074;17.004;2023-07-28T13:48:27;0.50;;;0.50;;
39750;SDS011;37579;51.074;17.004;2023-07-28T13:50:53;0.52;;;0.47;;
39750;SDS011;37579;51.074;17.004;2023-07-28T13:53:19;1.45;;;0.50;;
39750;SDS011;37579;51.074;17.004;2023-07-28T13:55:45;0.60;;;0.43;;
39750;SDS011;37579;51.074;17.004;2023-07-28T13:58:10;0.98;;;0.50;;
39750;SDS011;37579;51.074;17.004;2023-07-28T14:00:36;0.60;;;0.40;;
39750;SDS011;37579;51.074;17.004;2023-07-28T14:03:02;2.72;;;0.60;;
39750;SDS011;37579;51.074;17.004;2023-07-28T14:05:28;0.47;;;0.47;;
39750;SDS011;37579;51.074;17.004;2023-07-28T14:07:54;1.92;;;0.40;;
39750;SDS011;37579;51.074;17.004;2023-07-28T14:10:20;0.80;;;0.60;;
39750;SDS011;37579;51.074;17.004;2023-07-28T14:12:46;0.73;;;0.40;;
39750;SDS011;37579;51.074;17.004;2023-07-28T14:15:11;0.50;;;0.40;;
39750;SDS011;37579;51.074;17.004;2023-07-28T14:17:37;0.30;;;0.30;;
39750;SDS011;37579;51.074;17.004;2023-07-28T14:20:03;1.25;;;0.38;;
39750;SDS011;37579;51.074;17.004;2023-07-28T14:22:31;0.57;;;0.30;;
39750;SDS011;37579;51.074;17.004;2023-07-28T14:24:57;0.47;;;0.30;;
39750;SDS011;37579;51.074;17.004;2023-07-28T14:27:22;0.40;;;0.30;;
39750;SDS011;37579;51.074;17.004;2023-07-28T14:29:48;2.38;;;0.50;;
39750;SDS011;37579;51.074;17.004;2023-07-28T14:32:14;0.50;;;0.40;;
39750;SDS011;37579;51.074;17.004;2023-07-28T14:34:40;0.40;;;0.32;;
39750;SDS011;37579;51.074;17.004;2023-07-28T14:37:05;0.30;;;0.30;;
39750;SDS011;37579;51.074;17.004;2023-07-28T14:39:31;0.52;;;0.30;;
39750;SDS011;37579;51.074;17.004;2023-07-28T14:41:57;0.28;;;0.20;;
39750;SDS011;37579;51.074;17.004;2023-07-28T14:44:23;0.40;;;0.30;;
39750;SDS011;37579;51.074;17.004;2023-07-28T14:46:48;0.30;;;0.30;;
39750;SDS011;37579;51.074;17.004;2023-07-28T14:49:14;1.05;;;0.40;;
39750;SDS011;37579;51.074;17.004;2023-07-28T14:51:40;0.50;;;0.32;;